sensor_id;sensor_type;location;lat;lon;timestamp;P1;durP1;ratioP1;P2;durP2;ratioP2
25569;SDS011;17955;45.542;9.238;2022-07-29T00:01:13;5.63;;;1.83;;
25569;SDS011;17955;45.542;9.238;2022-07-29T00:03:41;2.67;;;1.52;;
25569;SDS011;17955;45.542;9.238;2022-07-29T00:06:08;3.63;;;1.55;;
25569;SDS011;17955;45.542;9.238;2022-07-29T00:08:35;3.45;;;1.75;;
25569;SDS011;17955;45.542;9.238;2022-07-29T00:11:02;3.40;;;1.75;;
25569;SDS011;17955;45.542;9.238;2022-07-29T00:13:31;5.22;;;1.92;;
25569;SDS011;17955;45.542;9.238;2022-07-29T00:15:58;2.50;;;1.40;;
25569;SDS011;17955;45.542;9.238;2022-07-29T00:18:25;3.65;;;1.60;;
25569;SDS011;17955;45.542;9.238;2022-07-29T00:20:53;5.25;;;2.17;;
25569;SDS011;17955;45.542;9.238;2022-07-29T00:23:20;4.78;;;1.90;;
25569;SDS011;17955;45.542;9.238;2022-07-29T00:25:47;4.43;;;1.98;;
25569;SDS011;17955;45.542;9.238;2022-07-29T00:28:14;4.28;;;2.25;;
25569;SDS011;17955;45.542;9.238;2022-07-29T00:30:42;4.88;;;1.98;;
25569;SDS011;17955;45.542;9.238;2022-07-29T00:33:09;3.72;;;2.03;;
25569;SDS011;17955;45.542;9.238;2022-07-29T00:35:36;4.22;;;1.70;;
25569;SDS011;17955;45.542;9.238;2022-07-29T00:38:09;3.92;;;2.25;;
25569;SDS011;17955;45.542;9.238;2022-07-29T00:40:36;6.13;;;2.25;;
25569;SDS011;17955;45.542;9.238;2022-07-29T00:43:03;5.03;;;2.30;;
25569;SDS011;17955;45.542;9.238;2022-07-29T00:45:30;7.78;;;2.25;;
25569;SDS011;17955;45.542;9.238;2022-07-29T00:47:59;4.78;;;2.10;;
25569;SDS011;17955;45.542;9.238;2022-07-29T00:50:26;2.55;;;1.67;;
25569;SDS011;17955;45.542;9.238;2022-07-29T00:52:53;4.38;;;1.95;;
25569;SDS011;17955;45.542;9.238;2022-07-29T00:55:20;4.75;;;1.60;;
25569;SDS011;17955;45.542;9.238;2022-07-29T00:57:48;5.03;;;1.80;;
25569;SDS011;17955;45.542;9.238;2022-07-29T01:00:16;3.67;;;1.45;;
25569;SDS011;17955;45.542;9.238;2022-07-29T01:02:45;3.42;;;1.55;;
25569;SDS011;17955;45.542;9.238;2022-07-29T01:05:15;2.30;;;1.30;;
25569;SDS011;17955;45.542;9.238;2022-07-29T01:07:44;2.33;;;1.17;;
25569;SDS011;17955;45.542;9.238;2022-07-29T01:10:13;3.65;;;1.38;;
25569;SDS011;17955;45.542;9.238;2022-07-29T01:12:42;2.70;;;1.23;;
25569;SDS011;17955;45.542;9.238;2022-07-29T01:15:11;3.33;;;1.45;;
25569;SDS011;17955;45.542;9.238;2022-07-29T01:17:40;3.40;;;1.40;;
25569;SDS011;17955;45.542;9.238;2022-07-29T01:20:12;2.70;;;1.55;;
25569;SDS011;17955;45.542;9.238;2022-07-29T01:23:01;2.92;;;1.33;;
25569;SDS011;17955;45.542;9.238;2022-07-29T01:26:01;4.82;;;2.05;;
25569;SDS011;17955;45.542;9.238;2022-07-29T01:28:49;2.95;;;1.40;;
25569;SDS011;17955;45.542;9.238;2022-07-29T01:31:24;3.42;;;1.48;;
25569;SDS011;17955;45.542;9.238;2022-07-29T01:33:57;4.50;;;1.58;;
25569;SDS011;17955;45.542;9.238;2022-07-29T01:36:27;4.30;;;1.60;;
25569;SDS011;17955;45.542;9.238;2022-07-29T01:38:59;3.22;;;1.65;;
25569;SDS011;17955;45.542;9.238;2022-07-29T01:41:32;3.95;;;1.45;;
25569;SDS011;17955;45.542;9.238;2022-07-29T01:44:09;3.20;;;1.58;;
25569;SDS011;17955;45.542;9.238;2022-07-29T01:46:42;2.75;;;1.40;;
25569;SDS011;17955;45.542;9.238;2022-07-29T01:49:14;3.88;;;1.27;;
25569;SDS011;17955;45.542;9.238;2022-07-29T01:51:44;3.63;;;1.50;;
25569;SDS011;17955;45.542;9.238;2022-07-29T01:54:16;2.33;;;1.17;;
25569;SDS011;17955;45.542;9.238;2022-07-29T01:56:47;3.95;;;1.13;;
25569;SDS011;17955;45.542;9.238;2022-07-29T01:59:18;2.40;;;1.30;;
25569;SDS011;17955;45.542;9.238;2022-07-29T02:01:48;2.22;;;1.00;;
25569;SDS011;17955;45.542;9.238;2022-07-29T02:04:18;3.50;;;1.50;;
25569;SDS011;17955;45.542;9.238;2022-07-29T02:06:46;4.60;;;1.50;;
25569;SDS011;17955;45.542;9.238;2022-07-29T02:09:17;3.22;;;1.25;;
25569;SDS011;17955;45.542;9.238;2022-07-29T02:11:47;2.03;;;1.10;;
25569;SDS011;17955;45.542;9.238;2022-07-29T02:14:21;2.67;;;1.25;;
25569;SDS011;17955;45.542;9.238;2022-07-29T02:16:50;3.03;;;1.30;;
25569;SDS011;17955;45.542;9.238;2022-07-29T02:19:21;6.70;;;1.60;;
25569;SDS011;17955;45.542;9.238;2022-07-29T02:21:49;2.55;;;1.35;;
25569;SDS011;17955;45.542;9.238;2022-07-29T02:24:20;3.60;;;1.42;;
25569;SDS011;17955;45.542;9.238;2022-07-29T02:26:49;2.40;;;1.10;;
25569;SDS011;17955;45.542;9.238;2022-07-29T02:29:18;2.25;;;1.10;;
25569;SDS011;17955;45.542;9.238;2022-07-29T02:31:49;4.47;;;1.30;;
25569;SDS011;17955;45.542;9.238;2022-07-29T02:34:18;2.20;;;0.95;;
25569;SDS011;17955;45.542;9.238;2022-07-29T02:36:47;2.60;;;1.30;;
25569;SDS011;17955;45.542;9.238;2022-07-29T02:39:15;3.55;;;1.30;;
25569;SDS011;17955;45.542;9.238;2022-07-29T02:41:45;3.47;;;1.30;;
25569;SDS011;17955;45.542;9.238;2022-07-29T02:44:14;4.47;;;1.63;;
25569;SDS011;17955;45.542;9.238;2022-07-29T02:46:45;3.20;;;1.52;;
25569;SDS011;17955;45.542;9.238;2022-07-29T02:49:16;2.80;;;1.30;;
25569;SDS011;17955;45.542;9.238;2022-07-29T02:51:51;2.50;;;1.27;;
25569;SDS011;17955;45.542;9.238;2022-07-29T02:54:25;3.80;;;1.20;;
25569;SDS011;17955;45.542;9.238;2022-07-29T02:59:26;3.30;;;1.27;;
25569;SDS011;17955;45.542;9.238;2022-07-29T03:01:58;3.08;;;1.20;;
25569;SDS011;17955;45.542;9.238;2022-07-29T03:04:26;2.88;;;1.40;;
25569;SDS011;17955;45.542;9.238;2022-07-29T03:06:54;2.25;;;1.20;;
25569;SDS011;17955;45.542;9.238;2022-07-29T03:09:24;1.70;;;1.10;;
25569;SDS011;17955;45.542;9.238;2022-07-29T03:11:52;1.95;;;1.30;;
25569;SDS011;17955;45.542;9.238;2022-07-29T03:14:20;2.92;;;1.30;;
25569;SDS011;17955;45.542;9.238;2022-07-29T03:16:49;2.35;;;1.10;;
25569;SDS011;17955;45.542;9.238;2022-07-29T03:19:19;2.95;;;1.20;;
25569;SDS011;17955;45.542;9.238;2022-07-29T03:21:46;2.13;;;1.10;;
25569;SDS011;17955;45.542;9.238;2022-07-29T03:24:26;3.13;;;1.10;;
25569;SDS011;17955;45.542;9.238;2022-07-29T03:26:54;2.95;;;0.98;;
25569;SDS011;17955;45.542;9.238;2022-07-29T03:29:22;2.20;;;1.17;;
25569;SDS011;17955;45.542;9.238;2022-07-29T03:31:50;2.25;;;1.15;;
25569;SDS011;17955;45.542;9.238;2022-07-29T03:34:18;3.67;;;1.50;;
25569;SDS011;17955;45.542;9.238;2022-07-29T03:36:46;3.10;;;1.38;;
25569;SDS011;17955;45.542;9.238;2022-07-29T03:39:14;3.05;;;1.10;;
25569;SDS011;17955;45.542;9.238;2022-07-29T03:41:44;2.42;;;1.15;;
25569;SDS011;17955;45.542;9.238;2022-07-29T03:44:13;3.03;;;1.20;;
25569;SDS011;17955;45.542;9.238;2022-07-29T03:46:42;2.58;;;1.05;;
25569;SDS011;17955;45.542;9.238;2022-07-29T03:49:10;2.97;;;1.27;;
25569;SDS011;17955;45.542;9.238;2022-07-29T03:51:41;3.30;;;1.30;;
25569;SDS011;17955;45.542;9.238;2022-07-29T03:54:09;2.28;;;1.20;;
25569;SDS011;17955;45.542;9.238;2022-07-29T03:56:38;2.67;;;1.42;;
25569;SDS011;17955;45.542;9.238;2022-07-29T03:59:08;4.40;;;1.33;;
25569;SDS011;17955;45.542;9.238;2022-07-29T04:01:36;2.97;;;1.30;;
25569;SDS011;17955;45.542;9.238;2022-07-29T04:04:04;2.40;;;1.10;;
25569;SDS011;17955;45.542;9.238;2022-07-29T04:06:37;4.22;;;1.10;;
25569;SDS011;17955;45.542;9.238;2022-07-29T04:09:07;3.05;;;1.33;;
25569;SDS011;17955;45.542;9.238;2022-07-29T04:11:34;4.00;;;1.27;;
25569;SDS011;17955;45.542;9.238;2022-07-29T04:14:04;5.97;;;1.10;;
25569;SDS011;17955;45.542;9.238;2022-07-29T04:16:31;3.65;;;1.35;;
25569;SDS011;17955;45.542;9.238;2022-07-29T04:18:59;3.22;;;1.13;;
25569;SDS011;17955;45.542;9.238;2022-07-29T04:21:26;2.90;;;1.20;;
25569;SDS011;17955;45.542;9.238;2022-07-29T04:23:53;2.42;;;1.20;;
25569;SDS011;17955;45.542;9.238;2022-07-29T04:26:22;2.60;;;1.27;;
25569;SDS011;17955;45.542;9.238;2022-07-29T04:28:49;2.58;;;1.10;;
25569;SDS011;17955;45.542;9.238;2022-07-29T04:31:16;1.50;;;1.00;;
25569;SDS011;17955;45.542;9.238;2022-07-29T04:33:43;2.53;;;1.05;;
25569;SDS011;17955;45.542;9.238;2022-07-29T04:36:10;2.63;;;1.05;;
25569;SDS011;17955;45.542;9.238;2022-07-29T04:38:37;2.33;;;0.98;;
25569;SDS011;17955;45.542;9.238;2022-07-29T04:41:05;2.22;;;1.05;;
25569;SDS011;17955;45.542;9.238;2022-07-29T04:43:35;4.03;;;1.10;;
25569;SDS011;17955;45.542;9.238;2022-07-29T04:46:02;1.58;;;1.05;;
25569;SDS011;17955;45.542;9.238;2022-07-29T04:48:29;3.20;;;1.17;;
25569;SDS011;17955;45.542;9.238;2022-07-29T04:50:58;1.55;;;0.90;;
25569;SDS011;17955;45.542;9.238;2022-07-29T04:53:25;3.17;;;1.50;;
25569;SDS011;17955;45.542;9.238;2022-07-29T04:55:52;1.50;;;0.80;;
25569;SDS011;17955;45.542;9.238;2022-07-29T04:58:19;2.60;;;1.30;;
25569;SDS011;17955;45.542;9.238;2022-07-29T05:00:49;4.18;;;0.85;;
25569;SDS011;17955;45.542;9.238;2022-07-29T05:03:16;4.28;;;1.58;;
25569;SDS011;17955;45.542;9.238;2022-07-29T05:05:44;3.03;;;1.30;;
25569;SDS011;17955;45.542;9.238;2022-07-29T05:08:11;3.17;;;1.30;;
25569;SDS011;17955;45.542;9.238;2022-07-29T05:10:38;2.92;;;1.42;;
25569;SDS011;17955;45.542;9.238;2022-07-29T05:13:05;3.30;;;1.45;;
25569;SDS011;17955;45.542;9.238;2022-07-29T05:15:33;8.77;;;1.70;;
25569;SDS011;17955;45.542;9.238;2022-07-29T05:18:02;5.43;;;2.00;;
25569;SDS011;17955;45.542;9.238;2022-07-29T05:20:30;5.00;;;1.50;;
25569;SDS011;17955;45.542;9.238;2022-07-29T05:22:58;8.70;;;1.40;;
25569;SDS011;17955;45.542;9.238;2022-07-29T05:25:26;4.47;;;1.50;;
25569;SDS011;17955;45.542;9.238;2022-07-29T05:27:54;4.05;;;1.30;;
25569;SDS011;17955;45.542;9.238;2022-07-29T05:30:21;3.53;;;1.55;;
25569;SDS011;17955;45.542;9.238;2022-07-29T05:32:48;4.82;;;1.20;;
25569;SDS011;17955;45.542;9.238;2022-07-29T05:35:17;4.35;;;1.38;;
25569;SDS011;17955;45.542;9.238;2022-07-29T05:37:44;6.57;;;1.92;;
25569;SDS011;17955;45.542;9.238;2022-07-29T05:40:11;3.88;;;1.80;;
25569;SDS011;17955;45.542;9.238;2022-07-29T05:42:38;5.80;;;1.77;;
25569;SDS011;17955;45.542;9.238;2022-07-29T05:45:06;6.13;;;1.77;;
25569;SDS011;17955;45.542;9.238;2022-07-29T05:47:33;4.70;;;1.63;;
25569;SDS011;17955;45.542;9.238;2022-07-29T05:50:00;4.15;;;2.10;;
25569;SDS011;17955;45.542;9.238;2022-07-29T05:52:29;6.70;;;2.15;;
25569;SDS011;17955;45.542;9.238;2022-07-29T05:54:56;6.13;;;2.30;;
25569;SDS011;17955;45.542;9.238;2022-07-29T05:57:23;6.05;;;2.60;;
25569;SDS011;17955;45.542;9.238;2022-07-29T05:59:50;7.78;;;2.80;;
25569;SDS011;17955;45.542;9.238;2022-07-29T06:02:17;9.70;;;2.88;;
25569;SDS011;17955;45.542;9.238;2022-07-29T06:04:44;9.00;;;3.70;;
25569;SDS011;17955;45.542;9.238;2022-07-29T06:07:11;9.15;;;3.47;;
25569;SDS011;17955;45.542;9.238;2022-07-29T06:09:40;9.25;;;3.05;;
25569;SDS011;17955;45.542;9.238;2022-07-29T06:12:07;6.93;;;3.15;;
25569;SDS011;17955;45.542;9.238;2022-07-29T06:14:34;6.65;;;3.15;;
25569;SDS011;17955;45.542;9.238;2022-07-29T06:17:03;5.25;;;3.00;;
25569;SDS011;17955;45.542;9.238;2022-07-29T06:19:30;8.15;;;3.47;;
25569;SDS011;17955;45.542;9.238;2022-07-29T06:21:57;4.65;;;2.83;;
25569;SDS011;17955;45.542;9.238;2022-07-29T06:24:24;5.95;;;3.38;;
25569;SDS011;17955;45.542;9.238;2022-07-29T06:26:52;12.73;;;4.20;;
25569;SDS011;17955;45.542;9.238;2022-07-29T06:29:19;7.28;;;4.13;;
25569;SDS011;17955;45.542;9.238;2022-07-29T06:31:46;7.20;;;3.78;;
25569;SDS011;17955;45.542;9.238;2022-07-29T06:34:13;8.15;;;3.83;;
25569;SDS011;17955;45.542;9.238;2022-07-29T06:36:41;6.80;;;4.70;;
25569;SDS011;17955;45.542;9.238;2022-07-29T06:39:08;11.10;;;4.40;;
25569;SDS011;17955;45.542;9.238;2022-07-29T06:41:35;7.82;;;4.38;;
25569;SDS011;17955;45.542;9.238;2022-07-29T06:44:09;7.45;;;4.35;;
25569;SDS011;17955;45.542;9.238;2022-07-29T06:46:36;7.18;;;4.50;;
25569;SDS011;17955;45.542;9.238;2022-07-29T06:49:03;10.70;;;5.07;;
25569;SDS011;17955;45.542;9.238;2022-07-29T06:51:30;10.18;;;3.90;;
25569;SDS011;17955;45.542;9.238;2022-07-29T06:53:57;8.45;;;4.10;;
25569;SDS011;17955;45.542;9.238;2022-07-29T06:56:24;5.35;;;3.25;;
25569;SDS011;17955;45.542;9.238;2022-07-29T06:58:51;6.53;;;3.72;;
25569;SDS011;17955;45.542;9.238;2022-07-29T07:01:20;6.55;;;3.88;;
25569;SDS011;17955;45.542;9.238;2022-07-29T07:03:46;11.15;;;3.80;;
25569;SDS011;17955;45.542;9.238;2022-07-29T07:06:13;9.25;;;3.63;;
25569;SDS011;17955;45.542;9.238;2022-07-29T07:08:41;12.52;;;3.85;;
25569;SDS011;17955;45.542;9.238;2022-07-29T07:11:08;7.82;;;3.90;;
25569;SDS011;17955;45.542;9.238;2022-07-29T07:13:35;6.00;;;3.72;;
25569;SDS011;17955;45.542;9.238;2022-07-29T07:16:02;8.73;;;2.90;;
25569;SDS011;17955;45.542;9.238;2022-07-29T07:18:31;6.38;;;3.10;;
25569;SDS011;17955;45.542;9.238;2022-07-29T07:20:58;8.98;;;3.03;;
25569;SDS011;17955;45.542;9.238;2022-07-29T07:23:25;6.38;;;3.53;;
25569;SDS011;17955;45.542;9.238;2022-07-29T07:25:52;5.60;;;2.92;;
25569;SDS011;17955;45.542;9.238;2022-07-29T07:28:19;9.90;;;3.60;;
25569;SDS011;17955;45.542;9.238;2022-07-29T07:30:46;8.38;;;3.15;;
25569;SDS011;17955;45.542;9.238;2022-07-29T07:33:13;5.70;;;3.00;;
25569;SDS011;17955;45.542;9.238;2022-07-29T07:35:41;5.43;;;3.33;;
25569;SDS011;17955;45.542;9.238;2022-07-29T07:38:09;8.82;;;3.03;;
25569;SDS011;17955;45.542;9.238;2022-07-29T07:40:36;9.60;;;2.90;;
25569;SDS011;17955;45.542;9.238;2022-07-29T07:43:03;7.28;;;3.17;;
25569;SDS011;17955;45.542;9.238;2022-07-29T07:45:30;5.15;;;2.90;;
25569;SDS011;17955;45.542;9.238;2022-07-29T07:47:58;4.35;;;2.78;;
25569;SDS011;17955;45.542;9.238;2022-07-29T07:50:25;7.55;;;2.70;;
25569;SDS011;17955;45.542;9.238;2022-07-29T07:52:54;5.13;;;3.10;;
25569;SDS011;17955;45.542;9.238;2022-07-29T07:55:23;5.72;;;2.75;;
25569;SDS011;17955;45.542;9.238;2022-07-29T07:57:50;6.72;;;2.83;;
25569;SDS011;17955;45.542;9.238;2022-07-29T08:00:17;5.82;;;2.97;;
25569;SDS011;17955;45.542;9.238;2022-07-29T08:02:44;9.35;;;3.80;;
25569;SDS011;17955;45.542;9.238;2022-07-29T08:05:11;8.00;;;3.17;;
25569;SDS011;17955;45.542;9.238;2022-07-29T08:07:42;6.97;;;2.33;;
25569;SDS011;17955;45.542;9.238;2022-07-29T08:10:11;4.88;;;2.60;;
25569;SDS011;17955;45.542;9.238;2022-07-29T08:12:38;5.60;;;2.70;;
25569;SDS011;17955;45.542;9.238;2022-07-29T08:15:06;7.00;;;2.60;;
25569;SDS011;17955;45.542;9.238;2022-07-29T08:17:34;11.10;;;2.53;;
25569;SDS011;17955;45.542;9.238;2022-07-29T08:20:01;5.50;;;2.10;;
25569;SDS011;17955;45.542;9.238;2022-07-29T08:22:28;6.88;;;2.92;;
25569;SDS011;17955;45.542;9.238;2022-07-29T08:24:55;4.53;;;2.40;;
25569;SDS011;17955;45.542;9.238;2022-07-29T08:27:23;6.20;;;2.30;;
25569;SDS011;17955;45.542;9.238;2022-07-29T08:29:51;8.48;;;2.45;;
25569;SDS011;17955;45.542;9.238;2022-07-29T08:32:20;6.78;;;2.67;;
25569;SDS011;17955;45.542;9.238;2022-07-29T08:34:47;6.28;;;2.50;;
25569;SDS011;17955;45.542;9.238;2022-07-29T08:37:15;5.05;;;2.30;;
25569;SDS011;17955;45.542;9.238;2022-07-29T08:39:42;5.28;;;2.30;;
25569;SDS011;17955;45.542;9.238;2022-07-29T08:42:09;10.73;;;2.63;;
25569;SDS011;17955;45.542;9.238;2022-07-29T08:44:39;5.82;;;2.55;;
25569;SDS011;17955;45.542;9.238;2022-07-29T08:47:06;5.55;;;2.10;;
25569;SDS011;17955;45.542;9.238;2022-07-29T08:49:33;9.07;;;2.72;;
25569;SDS011;17955;45.542;9.238;2022-07-29T08:52:01;9.40;;;2.47;;
25569;SDS011;17955;45.542;9.238;2022-07-29T08:54:29;8.30;;;2.97;;
25569;SDS011;17955;45.542;9.238;2022-07-29T08:56:56;12.68;;;2.92;;
25569;SDS011;17955;45.542;9.238;2022-07-29T08:59:24;6.80;;;2.72;;
25569;SDS011;17955;45.542;9.238;2022-07-29T09:01:54;4.15;;;2.42;;
25569;SDS011;17955;45.542;9.238;2022-07-29T09:04:24;10.25;;;2.60;;
25569;SDS011;17955;45.542;9.238;2022-07-29T09:06:56;5.05;;;2.53;;
25569;SDS011;17955;45.542;9.238;2022-07-29T09:09:26;8.25;;;2.55;;
25569;SDS011;17955;45.542;9.238;2022-07-29T09:11:53;8.10;;;3.22;;
25569;SDS011;17955;45.542;9.238;2022-07-29T09:14:20;10.43;;;2.70;;
25569;SDS011;17955;45.542;9.238;2022-07-29T09:16:52;6.80;;;2.90;;
25569;SDS011;17955;45.542;9.238;2022-07-29T09:19:28;4.15;;;2.38;;
25569;SDS011;17955;45.542;9.238;2022-07-29T09:21:58;5.50;;;2.35;;
25569;SDS011;17955;45.542;9.238;2022-07-29T09:24:35;5.30;;;2.40;;
25569;SDS011;17955;45.542;9.238;2022-07-29T09:27:08;10.77;;;2.58;;
25569;SDS011;17955;45.542;9.238;2022-07-29T09:29:37;7.38;;;2.42;;
25569;SDS011;17955;45.542;9.238;2022-07-29T09:32:08;4.95;;;2.60;;
25569;SDS011;17955;45.542;9.238;2022-07-29T09:34:36;4.43;;;2.75;;
25569;SDS011;17955;45.542;9.238;2022-07-29T09:37:03;6.72;;;3.13;;
25569;SDS011;17955;45.542;9.238;2022-07-29T09:39:32;4.93;;;2.45;;
25569;SDS011;17955;45.542;9.238;2022-07-29T09:42:00;6.93;;;2.50;;
25569;SDS011;17955;45.542;9.238;2022-07-29T09:44:40;7.07;;;2.88;;
25569;SDS011;17955;45.542;9.238;2022-07-29T09:47:10;7.18;;;2.72;;
25569;SDS011;17955;45.542;9.238;2022-07-29T09:49:49;5.22;;;2.70;;
25569;SDS011;17955;45.542;9.238;2022-07-29T09:52:18;7.82;;;2.65;;
25569;SDS011;17955;45.542;9.238;2022-07-29T09:54:45;6.53;;;2.85;;
25569;SDS011;17955;45.542;9.238;2022-07-29T09:57:22;8.05;;;2.88;;
25569;SDS011;17955;45.542;9.238;2022-07-29T09:59:58;5.75;;;3.05;;
25569;SDS011;17955;45.542;9.238;2022-07-29T10:02:39;5.90;;;2.72;;
25569;SDS011;17955;45.542;9.238;2022-07-29T10:05:15;4.03;;;2.47;;
25569;SDS011;17955;45.542;9.238;2022-07-29T10:07:44;5.63;;;3.28;;
25569;SDS011;17955;45.542;9.238;2022-07-29T10:10:18;5.43;;;3.15;;
25569;SDS011;17955;45.542;9.238;2022-07-29T10:12:50;6.10;;;3.13;;
25569;SDS011;17955;45.542;9.238;2022-07-29T10:15:19;4.80;;;3.13;;
25569;SDS011;17955;45.542;9.238;2022-07-29T10:17:49;6.18;;;3.17;;
25569;SDS011;17955;45.542;9.238;2022-07-29T10:20:17;7.10;;;3.15;;
25569;SDS011;17955;45.542;9.238;2022-07-29T10:22:44;5.32;;;3.50;;
25569;SDS011;17955;45.542;9.238;2022-07-29T10:25:12;8.27;;;3.00;;
25569;SDS011;17955;45.542;9.238;2022-07-29T10:27:41;5.03;;;2.80;;
25569;SDS011;17955;45.542;9.238;2022-07-29T10:30:09;8.93;;;3.05;;
25569;SDS011;17955;45.542;9.238;2022-07-29T10:32:39;4.55;;;2.90;;
25569;SDS011;17955;45.542;9.238;2022-07-29T10:35:32;5.60;;;2.97;;
25569;SDS011;17955;45.542;9.238;2022-07-29T10:38:21;6.85;;;3.72;;
25569;SDS011;17955;45.542;9.238;2022-07-29T10:41:03;8.60;;;3.28;;
25569;SDS011;17955;45.542;9.238;2022-07-29T10:43:55;5.90;;;3.17;;
25569;SDS011;17955;45.542;9.238;2022-07-29T10:46:26;10.32;;;2.90;;
25569;SDS011;17955;45.542;9.238;2022-07-29T10:49:11;6.32;;;3.60;;
25569;SDS011;17955;45.542;9.238;2022-07-29T10:51:59;8.00;;;3.70;;
25569;SDS011;17955;45.542;9.238;2022-07-29T10:57:25;10.23;;;4.50;;
25569;SDS011;17955;45.542;9.238;2022-07-29T11:02:52;7.43;;;3.72;;
25569;SDS011;17955;45.542;9.238;2022-07-29T11:05:22;5.60;;;3.13;;
25569;SDS011;17955;45.542;9.238;2022-07-29T11:10:47;9.90;;;4.85;;
25569;SDS011;17955;45.542;9.238;2022-07-29T11:16:12;6.38;;;3.92;;
25569;SDS011;17955;45.542;9.238;2022-07-29T11:21:42;8.20;;;4.03;;
25569;SDS011;17955;45.542;9.238;2022-07-29T11:24:12;12.18;;;4.10;;
25569;SDS011;17955;45.542;9.238;2022-07-29T11:26:40;4.93;;;3.13;;
25569;SDS011;17955;45.542;9.238;2022-07-29T11:29:15;10.40;;;4.00;;
25569;SDS011;17955;45.542;9.238;2022-07-29T11:31:46;5.47;;;3.33;;
25569;SDS011;17955;45.542;9.238;2022-07-29T11:34:17;7.35;;;3.55;;
25569;SDS011;17955;45.542;9.238;2022-07-29T11:39:42;7.30;;;3.85;;
25569;SDS011;17955;45.542;9.238;2022-07-29T11:45:11;11.63;;;4.20;;
25569;SDS011;17955;45.542;9.238;2022-07-29T11:47:47;8.88;;;4.20;;
25569;SDS011;17955;45.542;9.238;2022-07-29T11:50:26;6.90;;;4.60;;
25569;SDS011;17955;45.542;9.238;2022-07-29T11:52:56;6.50;;;4.07;;
25569;SDS011;17955;45.542;9.238;2022-07-29T11:55:24;6.38;;;3.97;;
25569;SDS011;17955;45.542;9.238;2022-07-29T11:57:51;7.75;;;4.25;;
25569;SDS011;17955;45.542;9.238;2022-07-29T12:00:24;6.95;;;3.38;;
25569;SDS011;17955;45.542;9.238;2022-07-29T12:02:55;9.55;;;4.05;;
25569;SDS011;17955;45.542;9.238;2022-07-29T12:05:34;12.73;;;3.95;;
25569;SDS011;17955;45.542;9.238;2022-07-29T12:08:09;5.88;;;3.78;;
25569;SDS011;17955;45.542;9.238;2022-07-29T12:10:37;6.90;;;3.97;;
25569;SDS011;17955;45.542;9.238;2022-07-29T12:13:05;5.82;;;3.85;;
25569;SDS011;17955;45.542;9.238;2022-07-29T12:15:32;6.90;;;3.95;;
25569;SDS011;17955;45.542;9.238;2022-07-29T12:18:09;9.93;;;4.28;;
25569;SDS011;17955;45.542;9.238;2022-07-29T12:20:37;6.47;;;3.90;;
25569;SDS011;17955;45.542;9.238;2022-07-29T12:23:05;7.50;;;4.40;;
25569;SDS011;17955;45.542;9.238;2022-07-29T12:25:34;8.15;;;3.80;;
25569;SDS011;17955;45.542;9.238;2022-07-29T12:28:03;8.98;;;4.10;;
25569;SDS011;17955;45.542;9.238;2022-07-29T12:33:18;10.00;;;4.15;;
25569;SDS011;17955;45.542;9.238;2022-07-29T12:35:47;6.22;;;4.13;;
25569;SDS011;17955;45.542;9.238;2022-07-29T12:38:16;8.43;;;4.28;;
25569;SDS011;17955;45.542;9.238;2022-07-29T12:40:46;9.27;;;5.20;;
25569;SDS011;17955;45.542;9.238;2022-07-29T12:43:14;8.85;;;4.32;;
25569;SDS011;17955;45.542;9.238;2022-07-29T12:45:43;6.43;;;4.10;;
25569;SDS011;17955;45.542;9.238;2022-07-29T12:48:10;8.02;;;4.25;;
25569;SDS011;17955;45.542;9.238;2022-07-29T12:50:52;7.45;;;4.07;;
25569;SDS011;17955;45.542;9.238;2022-07-29T12:53:20;9.02;;;4.25;;
25569;SDS011;17955;45.542;9.238;2022-07-29T12:55:49;6.65;;;4.07;;
25569;SDS011;17955;45.542;9.238;2022-07-29T12:58:31;6.40;;;4.10;;
25569;SDS011;17955;45.542;9.238;2022-07-29T13:01:01;12.55;;;4.18;;
25569;SDS011;17955;45.542;9.238;2022-07-29T13:03:41;9.38;;;4.03;;
25569;SDS011;17955;45.542;9.238;2022-07-29T13:09:04;6.45;;;4.30;;
25569;SDS011;17955;45.542;9.238;2022-07-29T13:11:35;6.85;;;3.72;;
25569;SDS011;17955;45.542;9.238;2022-07-29T13:14:03;7.07;;;3.83;;
25569;SDS011;17955;45.542;9.238;2022-07-29T13:16:31;5.82;;;4.22;;
25569;SDS011;17955;45.542;9.238;2022-07-29T13:19:11;5.78;;;3.83;;
25569;SDS011;17955;45.542;9.238;2022-07-29T13:21:38;7.15;;;4.30;;
25569;SDS011;17955;45.542;9.238;2022-07-29T13:24:06;6.95;;;4.18;;
25569;SDS011;17955;45.542;9.238;2022-07-29T13:26:36;9.45;;;4.07;;
25569;SDS011;17955;45.542;9.238;2022-07-29T13:29:06;7.88;;;4.32;;
25569;SDS011;17955;45.542;9.238;2022-07-29T13:31:33;12.32;;;4.03;;
25569;SDS011;17955;45.542;9.238;2022-07-29T13:34:00;10.27;;;4.50;;
25569;SDS011;17955;45.542;9.238;2022-07-29T13:36:31;7.97;;;4.10;;
25569;SDS011;17955;45.542;9.238;2022-07-29T13:38:58;11.95;;;4.20;;
25569;SDS011;17955;45.542;9.238;2022-07-29T13:41:26;7.38;;;4.13;;
25569;SDS011;17955;45.542;9.238;2022-07-29T13:43:54;6.13;;;3.63;;
25569;SDS011;17955;45.542;9.238;2022-07-29T13:46:21;8.60;;;4.05;;
25569;SDS011;17955;45.542;9.238;2022-07-29T13:48:48;10.13;;;4.40;;
25569;SDS011;17955;45.542;9.238;2022-07-29T13:51:15;5.18;;;3.42;;
25569;SDS011;17955;45.542;9.238;2022-07-29T13:53:42;6.07;;;3.72;;
25569;SDS011;17955;45.542;9.238;2022-07-29T13:56:09;5.88;;;3.67;;
25569;SDS011;17955;45.542;9.238;2022-07-29T13:58:36;7.88;;;3.70;;
25569;SDS011;17955;45.542;9.238;2022-07-29T14:01:04;6.80;;;3.45;;
25569;SDS011;17955;45.542;9.238;2022-07-29T14:03:31;6.07;;;3.78;;
25569;SDS011;17955;45.542;9.238;2022-07-29T14:05:58;7.72;;;4.18;;
25569;SDS011;17955;45.542;9.238;2022-07-29T14:08:26;8.23;;;3.95;;
25569;SDS011;17955;45.542;9.238;2022-07-29T14:10:53;9.38;;;4.43;;
25569;SDS011;17955;45.542;9.238;2022-07-29T14:13:20;6.40;;;4.43;;
25569;SDS011;17955;45.542;9.238;2022-07-29T14:15:47;9.90;;;4.68;;
25569;SDS011;17955;45.542;9.238;2022-07-29T14:18:15;10.68;;;3.75;;
25569;SDS011;17955;45.542;9.238;2022-07-29T14:20:42;11.45;;;3.85;;
25569;SDS011;17955;45.542;9.238;2022-07-29T14:23:09;10.20;;;4.57;;
25569;SDS011;17955;45.542;9.238;2022-07-29T14:25:36;6.10;;;3.80;;
25569;SDS011;17955;45.542;9.238;2022-07-29T14:28:03;6.13;;;3.95;;
25569;SDS011;17955;45.542;9.238;2022-07-29T14:30:30;5.20;;;3.30;;
25569;SDS011;17955;45.542;9.238;2022-07-29T14:32:57;6.53;;;3.60;;
25569;SDS011;17955;45.542;9.238;2022-07-29T14:35:26;5.78;;;3.70;;
25569;SDS011;17955;45.542;9.238;2022-07-29T14:37:53;7.13;;;3.33;;
25569;SDS011;17955;45.542;9.238;2022-07-29T14:40:20;6.25;;;3.25;;
25569;SDS011;17955;45.542;9.238;2022-07-29T14:42:47;5.50;;;3.40;;
25569;SDS011;17955;45.542;9.238;2022-07-29T14:45:14;7.30;;;3.67;;
25569;SDS011;17955;45.542;9.238;2022-07-29T14:47:41;5.03;;;3.42;;
25569;SDS011;17955;45.542;9.238;2022-07-29T14:50:08;6.85;;;3.60;;
25569;SDS011;17955;45.542;9.238;2022-07-29T14:52:37;6.22;;;3.55;;
25569;SDS011;17955;45.542;9.238;2022-07-29T14:55:04;6.53;;;3.85;;
25569;SDS011;17955;45.542;9.238;2022-07-29T14:57:32;9.25;;;3.60;;
25569;SDS011;17955;45.542;9.238;2022-07-29T14:59:58;6.95;;;3.53;;
25569;SDS011;17955;45.542;9.238;2022-07-29T15:02:26;10.57;;;3.05;;
25569;SDS011;17955;45.542;9.238;2022-07-29T15:04:52;9.23;;;3.38;;
25569;SDS011;17955;45.542;9.238;2022-07-29T15:07:19;6.25;;;3.88;;
25569;SDS011;17955;45.542;9.238;2022-07-29T15:09:48;7.47;;;3.55;;
25569;SDS011;17955;45.542;9.238;2022-07-29T15:12:15;5.93;;;3.60;;
25569;SDS011;17955;45.542;9.238;2022-07-29T15:14:42;7.63;;;3.80;;
25569;SDS011;17955;45.542;9.238;2022-07-29T15:17:09;7.53;;;3.67;;
25569;SDS011;17955;45.542;9.238;2022-07-29T15:19:36;7.25;;;3.13;;
25569;SDS011;17955;45.542;9.238;2022-07-29T15:22:03;4.40;;;3.20;;
25569;SDS011;17955;45.542;9.238;2022-07-29T15:24:30;8.23;;;3.47;;
25569;SDS011;17955;45.542;9.238;2022-07-29T15:26:59;7.95;;;3.70;;